Time;durP1;ratioP1;P1;durP2;ratioP2;P2;SDS_P1;SDS_P2;PMS_P1;PMS_P2;Temp;Humidity;BMP_temperature;BMP_pressure;BME280_temperature;BME280_humidity;BME280_pressure;Samples;Min_cycle;Max_cycle;Signal;HPM_P1;HPM_P2
2021/04/27 00:00:47;;;;;;;;;;;22.10;24.50;;;;;;465466;254;1132;-72
2021/04/27 00:02:47;;;;;;;;;;;22.00;24.50;;;;;;465383;256;1505;-72
2021/04/27 00:04:48;;;;;;;;;;;22.00;24.50;;;;;;465441;256;959;-72
2021/04/27 00:06:50;;;;;;;;;;;22.00;24.50;;;;;;465382;255;2154;-72
2021/04/27 00:08:51;;;;;;;;;;;22.00;24.50;;;;;;465494;256;925;-72
2021/04/27 00:10:52;;;;;;;;;;;22.00;24.50;;;;;;465421;256;1235;-72
2021/04/27 00:12:54;;;;;;;;;;;22.00;24.50;;;;;;465365;256;1067;-72
2021/04/27 00:14:55;;;;;;;;;;;22.00;24.50;;;;;;465286;255;1169;-72
2021/04/27 00:16:56;;;;;;;;;;;22.00;24.60;;;;;;465353;253;1229;-73
2021/04/27 00:18:57;;;;;;;;;;;22.00;24.60;;;;;;465385;256;961;-72
2021/04/27 00:20:59;;;;;;;;;;;21.90;24.60;;;;;;465380;256;957;-72
2021/04/27 00:23:00;;;;;;;;;;;22.00;24.60;;;;;;465356;256;980;-72
2021/04/27 00:25:02;;;;;;;;;;;22.00;24.60;;;;;;465434;256;1334;-73
2021/04/27 00:27:03;;;;;;;;;;;22.00;24.60;;;;;;465420;256;2154;-72
2021/04/27 00:29:04;;;;;;;;;;;21.90;24.60;;;;;;465415;256;981;-72
2021/04/27 00:31:06;;;;;;;;;;;21.90;24.60;;;;;;465482;256;969;-72
2021/04/27 00:33:07;;;;;;;;;;;21.90;24.60;;;;;;465559;255;1354;-72
2021/04/27 00:35:08;;;;;;;;;;;21.90;24.70;;;;;;465460;256;979;-72
2021/04/27 00:37:09;;;;;;;;;;;21.90;24.70;;;;;;465477;256;965;-72
2021/04/27 00:39:11;;;;;;;;;;;21.90;24.70;;;;;;465505;254;976;-72
2021/04/27 00:41:12;;;;;;;;;;;21.90;24.60;;;;;;465380;255;1068;-72
2021/04/27 00:43:13;;;;;;;;;;;21.90;24.60;;;;;;465472;254;1180;-72
2021/04/27 00:45:15;;;;;;;;;;;21.90;24.70;;;;;;465378;256;985;-72
2021/04/27 00:47:16;;;;;;;;;;;21.90;24.70;;;;;;465313;256;2218;-73
2021/04/27 00:49:17;;;;;;;;;;;21.90;24.70;;;;;;465417;256;1021;-73
2021/04/27 00:51:19;;;;;;;;;;;21.80;24.70;;;;;;465386;256;1102;-72
2021/04/27 00:53:20;;;;;;;;;;;21.80;24.70;;;;;;465384;256;1007;-72
2021/04/27 00:55:21;;;;;;;;;;;21.80;24.80;;;;;;465452;256;944;-72
2021/04/27 00:57:23;;;;;;;;;;;21.80;24.80;;;;;;465429;256;967;-72
2021/04/27 00:59:24;;;;;;;;;;;21.90;24.80;;;;;;465458;256;1065;-72
2021/04/27 01:01:25;;;;;;;;;;;21.90;24.80;;;;;;465402;256;1043;-72
2021/04/27 01:03:26;;;;;;;;;;;21.80;24.80;;;;;;465447;256;1207;-72
2021/04/27 01:05:28;;;;;;;;;;;21.80;24.80;;;;;;465415;256;982;-72
2021/04/27 01:07:29;;;;;;;;;;;21.80;24.90;;;;;;465388;256;2256;-72
2021/04/27 01:09:30;;;;;;;;;;;21.80;24.90;;;;;;465394;254;1113;-72
2021/04/27 01:11:31;;;;;;;;;;;21.80;24.90;;;;;;465367;256;1041;-72
2021/04/27 01:13:33;;;;;;;;;;;21.80;24.90;;;;;;465328;255;971;-72
2021/04/27 01:15:34;;;;;;;;;;;21.70;24.90;;;;;;465330;255;977;-72
2021/04/27 01:17:36;;;;;;;;;;;21.70;24.90;;;;;;465403;256;1047;-72
2021/04/27 01:19:37;;;;;;;;;;;21.80;24.90;;;;;;465467;256;993;-72
2021/04/27 01:21:38;;;;;;;;;;;21.70;24.90;;;;;;465467;256;993;-72
2021/04/27 01:23:39;;;;;;;;;;;21.70;24.90;;;;;;465384;256;1013;-72
2021/04/27 01:25:41;;;;;;;;;;;21.70;25.00;;;;;;465452;256;1004;-72
2021/04/27 01:27:42;;;;;;;;;;;21.70;25.00;;;;;;465479;256;2181;-72
2021/04/27 01:29:43;;;;;;;;;;;21.60;25.00;;;;;;450219;263;999;-72
2021/04/27 01:31:45;;;;;;;;;;;21.60;25.10;;;;;;458772;260;966;-72
2021/04/27 01:33:46;;;;;;;;;;;21.60;25.10;;;;;;460943;259;1195;-72
2021/04/27 01:35:47;;;;;;;;;;;21.70;25.00;;;;;;452982;262;991;-72
2021/04/27 01:37:48;;;;;;;;;;;21.70;25.10;;;;;;458729;259;999;-72
2021/04/27 01:39:50;;;;;;;;;;;21.60;25.10;;;;;;460855;259;957;-72
2021/04/27 01:41:51;;;;;;;;;;;21.60;25.20;;;;;;453029;262;973;-72
2021/04/27 01:43:52;;;;;;;;;;;21.60;25.20;;;;;;458766;259;1073;-72
2021/04/27 01:45:54;;;;;;;;;;;21.70;25.20;;;;;;461004;259;1091;-72
2021/04/27 01:47:55;;;;;;;;;;;21.60;25.20;;;;;;458747;259;2230;-72
2021/04/27 01:49:56;;;;;;;;;;;21.60;25.20;;;;;;460964;259;1230;-72
2021/04/27 01:51:57;;;;;;;;;;;21.50;25.20;;;;;;453093;262;1123;-72
2021/04/27 01:53:59;;;;;;;;;;;21.50;25.20;;;;;;458817;259;986;-72
2021/04/27 01:56:00;;;;;;;;;;;21.50;25.30;;;;;;460988;259;1115;-72
2021/04/27 01:58:01;;;;;;;;;;;21.50;25.30;;;;;;453151;262;1070;-72
2021/04/27 02:00:02;;;;;;;;;;;21.60;25.30;;;;;;458765;259;1347;-72
2021/04/27 02:02:04;;;;;;;;;;;21.50;25.30;;;;;;460852;259;1173;-72
2021/04/27 02:04:05;;;;;;;;;;;21.50;25.30;;;;;;453012;262;1194;-72
2021/04/27 02:06:06;;;;;;;;;;;21.60;25.30;;;;;;458670;252;1229;-72
2021/04/27 02:08:08;;;;;;;;;;;21.50;25.30;;;;;;460905;259;2203;-73
2021/04/27 02:10:09;;;;;;;;;;;21.50;25.30;;;;;;453062;262;1114;-72
2021/04/27 02:12:10;;;;;;;;;;;21.50;25.30;;;;;;458786;259;1123;-72
2021/04/27 02:14:11;;;;;;;;;;;21.50;25.30;;;;;;460995;259;1049;-72
2021/04/27 02:16:13;;;;;;;;;;;21.40;25.40;;;;;;453015;262;1210;-72
2021/04/27 02:18:14;;;;;;;;;;;21.40;25.40;;;;;;458822;259;951;-72
2021/04/27 02:20:15;;;;;;;;;;;21.50;25.40;;;;;;460978;259;1193;-72
2021/04/27 02:22:17;;;;;;;;;;;21.50;25.40;;;;;;458760;259;1116;-72
2021/04/27 02:24:18;;;;;;;;;;;21.50;25.40;;;;;;460939;259;1034;-72
2021/04/27 02:26:19;;;;;;;;;;;21.50;25.30;;;;;;453028;256;1208;-72
2021/04/27 02:28:20;;;;;;;;;;;21.40;25.40;;;;;;458697;259;2217;-72
2021/04/27 02:30:22;;;;;;;;;;;21.40;25.40;;;;;;460951;259;1317;-72
2021/04/27 02:32:23;;;;;;;;;;;21.40;25.40;;;;;;452983;260;1186;-73
2021/04/27 02:34:24;;;;;;;;;;;21.50;25.40;;;;;;458693;259;1156;-72
2021/04/27 02:36:26;;;;;;;;;;;21.50;25.40;;;;;;460875;259;1089;-72
2021/04/27 02:38:27;;;;;;;;;;;21.40;25.30;;;;;;453125;262;1022;-72
2021/04/27 02:40:28;;;;;;;;;;;21.40;25.40;;;;;;458752;258;1221;-72
2021/04/27 02:42:29;;;;;;;;;;;21.40;25.40;;;;;;461026;259;1065;-72
2021/04/27 02:44:31;;;;;;;;;;;21.50;25.40;;;;;;453156;262;1010;-72
2021/04/27 02:46:32;;;;;;;;;;;21.50;25.40;;;;;;458789;252;1330;-72
2021/04/27 02:48:33;;;;;;;;;;;21.40;25.30;;;;;;461009;259;2208;-72
2021/04/27 02:50:35;;;;;;;;;;;21.40;25.30;;;;;;453051;262;1258;-72
2021/04/27 02:52:36;;;;;;;;;;;21.40;25.40;;;;;;458719;259;1100;-72
2021/04/27 02:54:37;;;;;;;;;;;21.40;25.40;;;;;;460948;259;1053;-72
2021/04/27 02:56:39;;;;;;;;;;;21.40;25.40;;;;;;453046;259;1236;-72
2021/04/27 02:58:40;;;;;;;;;;;21.30;25.40;;;;;;458720;259;1021;-72
2021/04/27 03:00:41;;;;;;;;;;;21.40;25.40;;;;;;460865;259;1281;-72
2021/04/27 03:02:42;;;;;;;;;;;21.40;25.40;;;;;;452988;262;1147;-72
2021/04/27 03:04:44;;;;;;;;;;;21.40;25.40;;;;;;458620;259;1149;-72
2021/04/27 03:06:45;;;;;;;;;;;21.40;25.40;;;;;;460753;259;1128;-72
2021/04/27 03:08:46;;;;;;;;;;;21.40;25.40;;;;;;452908;262;2217;-72
2021/04/27 03:10:48;;;;;;;;;;;21.30;25.40;;;;;;458468;259;1239;-72
2021/04/27 03:12:49;;;;;;;;;;;21.30;25.40;;;;;;460990;259;1194;-72
2021/04/27 03:14:50;;;;;;;;;;;21.30;25.50;;;;;;453112;262;1042;-72
2021/04/27 03:16:51;;;;;;;;;;;21.30;25.50;;;;;;458694;252;1236;-72
2021/04/27 03:18:53;;;;;;;;;;;21.30;25.40;;;;;;460945;259;1037;-72
2021/04/27 03:20:54;;;;;;;;;;;21.30;25.40;;;;;;453093;262;1217;-72
2021/04/27 03:22:56;;;;;;;;;;;21.30;25.40;;;;;;458746;259;1087;-72
2021/04/27 03:24:57;;;;;;;;;;;21.30;25.40;;;;;;460951;259;977;-72
2021/04/27 03:26:58;;;;;;;;;;;21.30;25.50;;;;;;453096;262;1192;-72
2021/04/27 03:29:00;;;;;;;;;;;21.20;25.50;;;;;;458718;259;2213;-72
2021/04/27 03:31:01;;;;;;;;;;;21.20;25.50;;;;;;460996;259;957;-72
2021/04/27 03:33:02;;;;;;;;;;;21.10;25.50;;;;;;453150;260;1230;-72
2021/04/27 03:35:03;;;;;;;;;;;21.10;25.50;;;;;;458637;259;1180;-72
2021/04/27 03:37:05;;;;;;;;;;;21.20;25.50;;;;;;460818;255;1148;-72
2021/04/27 03:39:06;;;;;;;;;;;21.10;25.50;;;;;;453111;262;1241;-72
2021/04/27 03:41:07;;;;;;;;;;;21.20;25.50;;;;;;458713;259;1264;-72
2021/04/27 03:43:09;;;;;;;;;;;21.10;25.50;;;;;;460978;259;946;-72
2021/04/27 03:45:10;;;;;;;;;;;21.10;25.50;;;;;;453109;262;1019;-72
2021/04/27 03:47:11;;;;;;;;;;;21.10;25.50;;;;;;458761;259;1019;-72
2021/04/27 03:49:12;;;;;;;;;;;21.10;25.50;;;;;;460942;259;2165;-72
2021/04/27 03:51:14;;;;;;;;;;;21.10;25.60;;;;;;453071;262;1242;-72
2021/04/27 03:53:15;;;;;;;;;;;21.10;25.50;;;;;;458671;259;1089;-72
2021/04/27 03:55:16;;;;;;;;;;;21.10;25.50;;;;;;460924;259;1016;-72
2021/04/27 03:57:18;;;;;;;;;;;21.10;25.50;;;;;;453138;262;1064;-72
2021/04/27 03:59:19;;;;;;;;;;;21.00;25.50;;;;;;458832;259;988;-73
2021/04/27 04:01:20;;;;;;;;;;;21.10;25.50;;;;;;460976;259;1050;-72
2021/04/27 04:03:22;;;;;;;;;;;21.10;25.50;;;;;;453081;262;1032;-72
2021/04/27 04:05:23;;;;;;;;;;;21.10;25.50;;;;;;458754;259;1321;-72
2021/04/27 04:07:24;;;;;;;;;;;21.10;25.50;;;;;;461004;259;1063;-72
2021/04/27 04:09:26;;;;;;;;;;;21.10;25.50;;;;;;453204;262;2201;-72
2021/04/27 04:11:27;;;;;;;;;;;21.10;25.50;;;;;;458726;259;1018;-72
2021/04/27 04:13:28;;;;;;;;;;;21.10;25.50;;;;;;460988;259;982;-73
2021/04/27 04:15:30;;;;;;;;;;;21.10;25.50;;;;;;453035;262;1200;-72
2021/04/27 04:17:31;;;;;;;;;;;21.10;25.50;;;;;;458671;259;1212;-72
2021/04/27 04:19:32;;;;;;;;;;;21.00;25.50;;;;;;460908;259;1205;-72
2021/04/27 04:21:33;;;;;;;;;;;21.00;25.50;;;;;;453045;262;1258;-72
2021/04/27 04:23:35;;;;;;;;;;;21.00;25.50;;;;;;458811;259;992;-72
2021/04/27 04:25:36;;;;;;;;;;;21.00;25.50;;;;;;461008;259;959;-72
2021/04/27 04:27:37;;;;;;;;;;;21.00;25.50;;;;;;453043;262;1035;-72
2021/04/27 04:29:39;;;;;;;;;;;21.00;25.50;;;;;;458739;259;2193;-72
2021/04/27 04:31:40;;;;;;;;;;;21.00;25.50;;;;;;460864;259;1023;-72
2021/04/27 04:33:41;;;;;;;;;;;21.00;25.60;;;;;;458733;259;974;-72
2021/04/27 04:35:42;;;;;;;;;;;21.00;25.50;;;;;;460872;259;1177;-72
2021/04/27 04:37:44;;;;;;;;;;;21.10;25.50;;;;;;452928;262;1068;-73
2021/04/27 04:39:45;;;;;;;;;;;21.00;25.50;;;;;;458627;259;1316;-72
2021/04/27 04:41:46;;;;;;;;;;;21.00;25.50;;;;;;460820;259;1001;-72
2021/04/27 04:43:47;;;;;;;;;;;21.00;25.50;;;;;;452964;262;1038;-72
2021/04/27 04:45:49;;;;;;;;;;;21.00;25.60;;;;;;458579;259;1124;-72
2021/04/27 04:47:50;;;;;;;;;;;21.00;25.60;;;;;;460625;259;2146;-73
2021/04/27 04:49:51;;;;;;;;;;;21.00;25.60;;;;;;458628;259;1091;-72
2021/04/27 04:51:53;;;;;;;;;;;21.00;25.50;;;;;;461031;255;1226;-72
2021/04/27 04:53:54;;;;;;;;;;;21.00;25.50;;;;;;452928;262;1007;-72
2021/04/27 04:55:55;;;;;;;;;;;21.00;25.50;;;;;;458476;259;1184;-72
2021/04/27 04:57:56;;;;;;;;;;;21.00;25.50;;;;;;460707;259;1065;-72
2021/04/27 04:59:58;;;;;;;;;;;21.10;25.50;;;;;;452911;262;983;-72
2021/04/27 05:01:59;;;;;;;;;;;21.00;25.50;;;;;;458577;259;1111;-72
2021/04/27 05:04:00;;;;;;;;;;;21.10;25.50;;;;;;460691;259;1049;-72
2021/04/27 05:06:02;;;;;;;;;;;21.00;25.50;;;;;;452777;262;1257;-72
2021/04/27 05:08:09;;;;;;;;;;;21.00;25.50;;;;;;458515;259;2167;-72
2021/04/27 05:10:04;;;;;;;;;;;21.00;25.60;;;;;;460365;258;1453;-72
2021/04/27 05:12:05;;;;;;;;;;;21.00;25.50;;;;;;452821;262;1020;-72
2021/04/27 05:14:07;;;;;;;;;;;21.00;25.60;;;;;;458585;259;1016;-72
2021/04/27 05:16:08;;;;;;;;;;;21.00;25.60;;;;;;460705;259;1005;-72
2021/04/27 05:18:09;;;;;;;;;;;21.00;25.60;;;;;;452945;262;977;-72
2021/04/27 05:20:11;;;;;;;;;;;21.00;25.50;;;;;;458622;259;1041;-72
2021/04/27 05:22:12;;;;;;;;;;;21.00;25.60;;;;;;460807;259;1268;-72
2021/04/27 05:24:13;;;;;;;;;;;21.10;25.60;;;;;;452882;262;1138;-72
2021/04/27 05:26:14;;;;;;;;;;;21.00;25.60;;;;;;458547;259;1627;-72
2021/04/27 05:28:16;;;;;;;;;;;21.00;25.60;;;;;;460741;259;2156;-72
2021/04/27 05:30:17;;;;;;;;;;;21.10;25.50;;;;;;452754;262;1135;-72
2021/04/27 05:32:18;;;;;;;;;;;21.10;25.60;;;;;;458396;259;1116;-72
2021/04/27 05:34:20;;;;;;;;;;;21.10;25.50;;;;;;460657;259;1010;-73
2021/04/27 05:36:21;;;;;;;;;;;21.30;25.40;;;;;;452816;262;1279;-72
2021/04/27 05:38:22;;;;;;;;;;;21.20;25.40;;;;;;458494;259;971;-72
2021/04/27 05:40:23;;;;;;;;;;;21.20;25.40;;;;;;460695;259;983;-73
2021/04/27 05:42:25;;;;;;;;;;;21.20;25.40;;;;;;452731;260;1356;-72
2021/04/27 05:44:26;;;;;;;;;;;21.20;25.40;;;;;;458457;259;1007;-73
2021/04/27 05:46:28;;;;;;;;;;;21.30;25.40;;;;;;460645;259;1063;-73
2021/04/27 05:48:29;;;;;;;;;;;21.30;25.40;;;;;;452791;262;2209;-72
2021/04/27 05:50:30;;;;;;;;;;;21.40;25.40;;;;;;458545;259;1010;-72
2021/04/27 05:52:32;;;;;;;;;;;21.40;25.30;;;;;;460737;259;1191;-72
2021/04/27 05:54:33;;;;;;;;;;;21.40;25.30;;;;;;452816;262;1085;-72
2021/04/27 05:56:34;;;;;;;;;;;21.40;25.30;;;;;;458485;259;1009;-72
2021/04/27 05:58:35;;;;;;;;;;;21.40;25.30;;;;;;460582;259;1045;-72
2021/04/27 06:00:37;;;;;;;;;;;21.40;25.30;;;;;;452749;262;980;-73
2021/04/27 06:02:38;;;;;;;;;;;21.40;25.30;;;;;;458393;259;1013;-73
2021/04/27 06:04:39;;;;;;;;;;;21.30;25.40;;;;;;460621;259;1006;-72
2021/04/27 06:06:40;;;;;;;;;;;21.30;25.40;;;;;;452753;262;1252;-72
2021/04/27 06:08:42;;;;;;;;;;;21.30;25.40;;;;;;458414;259;2142;-72
2021/04/27 06:10:43;;;;;;;;;;;21.30;25.50;;;;;;460523;259;1011;-72
2021/04/27 06:12:44;;;;;;;;;;;21.30;25.50;;;;;;452714;262;1195;-72
2021/04/27 06:14:46;;;;;;;;;;;21.30;25.50;;;;;;458426;259;1171;-72
2021/04/27 06:16:47;;;;;;;;;;;21.30;25.60;;;;;;460578;259;1107;-73
2021/04/27 06:18:48;;;;;;;;;;;21.30;25.50;;;;;;452715;262;1188;-72
2021/04/27 06:20:49;;;;;;;;;;;21.50;25.50;;;;;;458442;259;1062;-72
2021/04/27 06:22:51;;;;;;;;;;;21.60;25.50;;;;;;460565;259;1224;-72
2021/04/27 06:24:52;;;;;;;;;;;21.60;25.40;;;;;;452760;262;1081;-72
2021/04/27 06:26:53;;;;;;;;;;;21.60;25.40;;;;;;458334;259;1267;-72
2021/04/27 06:28:54;;;;;;;;;;;21.80;25.40;;;;;;460405;259;2197;-72
2021/04/27 06:30:56;;;;;;;;;;;21.80;25.30;;;;;;452668;262;1010;-72
2021/04/27 06:32:57;;;;;;;;;;;21.80;25.30;;;;;;458267;259;1080;-72
2021/04/27 06:34:58;;;;;;;;;;;21.90;25.30;;;;;;460380;259;1040;-72
2021/04/27 06:37:00;;;;;;;;;;;22.00;25.30;;;;;;452461;262;1333;-72
2021/04/27 06:39:01;;;;;;;;;;;21.90;25.30;;;;;;458264;259;1090;-74
2021/04/27 06:41:02;;;;;;;;;;;21.90;25.30;;;;;;460352;259;1051;-72
2021/04/27 06:43:04;;;;;;;;;;;21.90;25.30;;;;;;452611;262;1091;-72
2021/04/27 06:45:05;;;;;;;;;;;21.90;25.30;;;;;;458257;259;1046;-72
2021/04/27 06:47:06;;;;;;;;;;;21.90;25.40;;;;;;460308;259;1102;-72
2021/04/27 06:49:08;;;;;;;;;;;21.90;25.40;;;;;;452506;262;2204;-73
2021/04/27 06:51:09;;;;;;;;;;;21.80;25.50;;;;;;458183;259;1093;-72
2021/04/27 06:53:10;;;;;;;;;;;21.70;25.50;;;;;;460432;259;1196;-72
2021/04/27 06:55:12;;;;;;;;;;;21.70;25.60;;;;;;458251;259;1087;-72
2021/04/27 06:57:13;;;;;;;;;;;21.60;25.80;;;;;;460405;259;1065;-72
2021/04/27 06:59:16;;;;;;;;;;;21.50;25.80;;;;;;458370;259;1459;-72
2021/04/27 07:01:15;;;;;;;;;;;21.50;25.90;;;;;;460348;258;1423;-73
2021/04/27 07:03:17;;;;;;;;;;;21.50;25.90;;;;;;452680;262;1166;-73
2021/04/27 07:05:18;;;;;;;;;;;21.50;26.00;;;;;;458125;259;1012;-73
2021/04/27 07:07:19;;;;;;;;;;;21.50;25.90;;;;;;460394;259;1273;-72
2021/04/27 07:09:21;;;;;;;;;;;21.50;25.90;;;;;;452548;262;2193;-72
2021/04/27 07:11:22;;;;;;;;;;;21.50;26.00;;;;;;458180;258;1081;-73
2021/04/27 07:13:23;;;;;;;;;;;21.40;26.10;;;;;;460433;259;1030;-73
2021/04/27 07:15:24;;;;;;;;;;;21.30;26.20;;;;;;452511;262;1062;-73
2021/04/27 07:17:26;;;;;;;;;;;21.40;26.20;;;;;;458219;259;1068;-73
2021/04/27 07:19:27;;;;;;;;;;;21.50;26.10;;;;;;460321;259;1076;-73
2021/04/27 07:21:28;;;;;;;;;;;21.40;26.20;;;;;;452424;262;1070;-73
2021/04/27 07:23:29;;;;;;;;;;;21.40;26.30;;;;;;458124;259;1221;-73
2021/04/27 07:25:31;;;;;;;;;;;21.30;26.30;;;;;;460348;259;987;-73
2021/04/27 07:27:32;;;;;;;;;;;21.30;26.30;;;;;;452603;262;1270;-72
2021/04/27 07:29:33;;;;;;;;;;;21.30;26.30;;;;;;458148;259;2226;-73
2021/04/27 07:31:34;;;;;;;;;;;21.30;26.40;;;;;;460341;259;1116;-73
2021/04/27 07:33:36;;;;;;;;;;;21.30;26.40;;;;;;452552;262;1082;-73
2021/04/27 07:35:37;;;;;;;;;;;21.30;26.50;;;;;;458133;259;1094;-72
2021/04/27 07:37:38;;;;;;;;;;;21.40;26.40;;;;;;460474;259;1275;-72
2021/04/27 07:39:40;;;;;;;;;;;21.40;26.40;;;;;;452558;262;1115;-72
2021/04/27 07:41:41;;;;;;;;;;;21.30;26.50;;;;;;458284;259;1198;-72
2021/04/27 07:43:42;;;;;;;;;;;21.30;26.60;;;;;;460380;259;1132;-72
2021/04/27 07:45:44;;;;;;;;;;;21.40;26.60;;;;;;452540;262;1059;-72
2021/04/27 07:47:45;;;;;;;;;;;21.30;26.60;;;;;;458195;259;1066;-73
2021/04/27 07:49:46;;;;;;;;;;;21.40;26.60;;;;;;460398;259;2173;-73
2021/04/27 07:51:47;;;;;;;;;;;21.30;26.60;;;;;;452509;262;1164;-72
2021/04/27 07:53:49;;;;;;;;;;;21.30;26.70;;;;;;458142;259;1213;-72
2021/04/27 07:55:50;;;;;;;;;;;21.30;26.70;;;;;;460285;259;1082;-72
2021/04/27 07:57:51;;;;;;;;;;;21.40;26.70;;;;;;452079;262;1121;-72
2021/04/27 07:59:52;;;;;;;;;;;21.30;26.80;;;;;;457941;259;1073;-72
2021/04/27 08:01:54;;;;;;;;;;;21.30;26.90;;;;;;460235;259;1100;-72
2021/04/27 08:03:55;;;;;;;;;;;21.30;26.90;;;;;;452493;262;1009;-73
2021/04/27 08:05:57;;;;;;;;;;;21.40;26.90;;;;;;458164;259;1246;-73
2021/04/27 08:07:58;;;;;;;;;;;21.40;26.80;;;;;;460301;259;1389;-73
2021/04/27 08:09:59;;;;;;;;;;;21.40;27.00;;;;;;452505;259;2212;-72
2021/04/27 08:12:01;;;;;;;;;;;21.30;27.00;;;;;;458234;259;1044;-72
2021/04/27 08:14:02;;;;;;;;;;;21.30;27.00;;;;;;460303;259;1032;-73
2021/04/27 08:16:04;;;;;;;;;;;21.50;26.90;;;;;;452455;259;1094;-73
2021/04/27 08:18:05;;;;;;;;;;;21.50;26.90;;;;;;458233;259;1058;-73
2021/04/27 08:20:06;;;;;;;;;;;21.40;26.90;;;;;;460434;259;985;-73
2021/04/27 08:22:07;;;;;;;;;;;21.40;27.00;;;;;;452495;262;1167;-73
2021/04/27 08:24:09;;;;;;;;;;;21.40;27.00;;;;;;458060;259;1245;-73
2021/04/27 08:26:10;;;;;;;;;;;21.40;26.90;;;;;;460171;259;1149;-72
2021/04/27 08:28:13;;;;;;;;;;;21.40;27.00;;;;;;452522;262;1108;-72
2021/04/27 08:30:13;;;;;;;;;;;21.30;27.20;;;;;;458187;259;2193;-72
2021/04/27 08:32:14;;;;;;;;;;;21.30;27.20;;;;;;460331;259;1336;-72
2021/04/27 08:34:16;;;;;;;;;;;21.40;27.20;;;;;;452498;262;1031;-73
2021/04/27 08:36:17;;;;;;;;;;;21.40;27.30;;;;;;458198;256;1353;-73
2021/04/27 08:38:18;;;;;;;;;;;21.40;27.30;;;;;;460496;259;1196;-73
2021/04/27 08:40:19;;;;;;;;;;;21.40;27.30;;;;;;452603;262;1068;-73
2021/04/27 08:42:21;;;;;;;;;;;21.50;27.40;;;;;;458244;259;1136;-72
2021/04/27 08:44:22;;;;;;;;;;;21.50;27.30;;;;;;460432;259;1086;-72
2021/04/27 08:46:23;;;;;;;;;;;21.50;27.40;;;;;;452458;262;1159;-72
2021/04/27 08:48:24;;;;;;;;;;;21.40;27.50;;;;;;458154;259;1084;-72
2021/04/27 08:50:26;;;;;;;;;;;21.40;27.50;;;;;;460249;259;2184;-72
2021/04/27 08:52:27;;;;;;;;;;;21.40;27.50;;;;;;458110;259;1223;-73
2021/04/27 08:54:28;;;;;;;;;;;21.50;27.50;;;;;;460334;259;1217;-73
2021/04/27 08:56:30;;;;;;;;;;;21.40;27.50;;;;;;452465;262;1444;-74
2021/04/27 08:58:31;;;;;;;;;;;21.40;27.50;;;;;;458096;259;1098;-72
2021/04/27 09:00:32;;;;;;;;;;;21.40;27.50;;;;;;460321;259;1234;-72
2021/04/27 09:02:34;;;;;;;;;;;21.50;27.50;;;;;;452351;260;1161;-73
2021/04/27 09:04:35;;;;;;;;;;;21.50;27.60;;;;;;457808;259;1095;-72
2021/04/27 09:06:36;;;;;;;;;;;21.50;27.60;;;;;;460392;259;1224;-73
2021/04/27 09:08:37;;;;;;;;;;;21.40;27.70;;;;;;452524;262;1229;-73
2021/04/27 09:10:39;;;;;;;;;;;21.50;27.60;;;;;;458104;259;2205;-73
2021/04/27 09:12:40;;;;;;;;;;;21.40;27.60;;;;;;460417;259;1130;-72
2021/04/27 09:14:41;;;;;;;;;;;21.50;27.80;;;;;;452574;262;1058;-72
2021/04/27 09:16:42;;;;;;;;;;;21.40;27.70;;;;;;458176;259;1044;-73
2021/04/27 09:18:44;;;;;;;;;;;21.40;27.80;;;;;;460423;259;1154;-73
2021/04/27 09:20:45;;;;;;;;;;;21.50;27.70;;;;;;452477;262;1371;-73
2021/04/27 09:22:46;;;;;;;;;;;21.50;27.70;;;;;;458211;259;1128;-73
2021/04/27 09:24:47;;;;;;;;;;;21.50;27.70;;;;;;460334;259;1202;-72
2021/04/27 09:26:49;;;;;;;;;;;21.50;27.80;;;;;;458124;259;1126;-72
2021/04/27 09:28:50;;;;;;;;;;;21.50;27.90;;;;;;460397;259;1279;-73
2021/04/27 09:30:51;;;;;;;;;;;21.50;27.80;;;;;;458090;259;2201;-72
2021/04/27 09:32:53;;;;;;;;;;;21.40;27.90;;;;;;460202;255;1100;-72
2021/04/27 09:34:54;;;;;;;;;;;21.40;27.90;;;;;;452415;262;1044;-72
2021/04/27 09:36:55;;;;;;;;;;;21.30;28.00;;;;;;458089;259;1148;-72
2021/04/27 09:38:56;;;;;;;;;;;21.50;27.90;;;;;;460395;259;1314;-72
2021/04/27 09:40:58;;;;;;;;;;;21.40;27.90;;;;;;452500;262;1084;-72
2021/04/27 09:42:59;;;;;;;;;;;21.40;27.90;;;;;;458222;259;1103;-72
2021/04/27 09:45:00;;;;;;;;;;;21.40;27.90;;;;;;459819;259;1019;-73
2021/04/27 09:47:01;;;;;;;;;;;21.50;28.00;;;;;;458057;259;1221;-72
2021/04/27 09:49:03;;;;;;;;;;;21.50;28.00;;;;;;460237;259;1089;-72
2021/04/27 09:51:04;;;;;;;;;;;21.40;28.00;;;;;;452232;262;2197;-72
2021/04/27 09:53:05;;;;;;;;;;;21.40;28.10;;;;;;458085;259;1134;-72
2021/04/27 09:55:07;;;;;;;;;;;21.40;28.10;;;;;;460322;259;1189;-73
2021/04/27 09:57:08;;;;;;;;;;;21.50;28.10;;;;;;452469;262;1202;-73
2021/04/27 09:59:09;;;;;;;;;;;21.40;28.10;;;;;;457885;259;1036;-72
2021/04/27 10:01:11;;;;;;;;;;;21.40;28.10;;;;;;460007;259;1253;-73
2021/04/27 10:03:12;;;;;;;;;;;21.40;28.20;;;;;;452383;262;1093;-73
2021/04/27 10:05:13;;;;;;;;;;;21.50;28.20;;;;;;457841;259;1034;-74
2021/04/27 10:07:14;;;;;;;;;;;21.50;28.20;;;;;;460008;255;1238;-73
2021/04/27 10:09:16;;;;;;;;;;;21.40;28.20;;;;;;457802;259;1047;-73
2021/04/27 10:11:17;;;;;;;;;;;21.40;28.30;;;;;;459947;255;2207;-74
2021/04/27 10:13:18;;;;;;;;;;;21.40;28.30;;;;;;452035;262;1197;-75
2021/04/27 10:15:19;;;;;;;;;;;21.50;28.30;;;;;;458103;259;1015;-74
2021/04/27 10:17:23;;;;;;;;;;;21.50;28.30;;;;;;460328;255;1244;-73
2021/04/27 10:19:22;;;;;;;;;;;21.40;28.40;;;;;;452344;262;1526;-73
2021/04/27 10:21:23;;;;;;;;;;;21.40;28.50;;;;;;458038;259;1275;-73
2021/04/27 10:23:25;;;;;;;;;;;21.50;28.50;;;;;;460317;259;1731;-73
2021/04/27 10:25:26;;;;;;;;;;;21.50;28.40;;;;;;458071;259;1221;-73
2021/04/27 10:27:27;;;;;;;;;;;21.40;28.40;;;;;;460334;259;1505;-73
2021/04/27 10:29:28;;;;;;;;;;;21.40;28.50;;;;;;458162;259;1146;-73
2021/04/27 10:31:30;;;;;;;;;;;21.40;28.50;;;;;;460416;257;2156;-73
2021/04/27 10:33:31;;;;;;;;;;;21.50;28.40;;;;;;452419;262;1322;-73
2021/04/27 10:35:32;;;;;;;;;;;21.50;28.50;;;;;;457954;259;1031;-73
2021/04/27 10:37:33;;;;;;;;;;;21.40;28.50;;;;;;460295;259;1248;-73
2021/04/27 10:39:35;;;;;;;;;;;21.50;28.60;;;;;;452433;262;1216;-73
2021/04/27 10:41:36;;;;;;;;;;;21.50;28.50;;;;;;458118;259;1262;-73
2021/04/27 10:43:37;;;;;;;;;;;21.50;28.60;;;;;;460178;259;1057;-73
2021/04/27 10:45:39;;;;;;;;;;;21.40;28.60;;;;;;452391;262;1235;-73
2021/04/27 10:47:40;;;;;;;;;;;21.50;28.60;;;;;;458062;256;1283;-73
2021/04/27 10:49:41;;;;;;;;;;;21.50;28.60;;;;;;460298;259;1252;-73
2021/04/27 10:51:42;;;;;;;;;;;21.50;28.50;;;;;;452394;262;2206;-73
2021/04/27 10:53:44;;;;;;;;;;;21.50;28.60;;;;;;458074;259;1043;-73
2021/04/27 10:55:45;;;;;;;;;;;21.40;28.70;;;;;;460125;257;1214;-73
2021/04/27 10:57:46;;;;;;;;;;;21.40;28.70;;;;;;458222;259;1250;-73
2021/04/27 10:59:48;;;;;;;;;;;21.40;28.80;;;;;;460282;259;1096;-73
2021/04/27 11:01:49;;;;;;;;;;;21.50;28.70;;;;;;452372;262;1102;-73
2021/04/27 11:03:50;;;;;;;;;;;21.50;28.70;;;;;;458065;259;1135;-73
2021/04/27 11:05:52;;;;;;;;;;;21.50;28.80;;;;;;460197;259;1126;-73
2021/04/27 11:07:53;;;;;;;;;;;21.50;28.80;;;;;;452430;262;1060;-73
2021/04/27 11:09:54;;;;;;;;;;;21.60;28.80;;;;;;458086;259;1018;-73
2021/04/27 11:11:56;;;;;;;;;;;21.50;28.80;;;;;;460231;259;2197;-73
2021/04/27 11:13:57;;;;;;;;;;;21.50;28.80;;;;;;452330;262;1460;-73
2021/04/27 11:15:58;;;;;;;;;;;21.40;28.90;;;;;;458101;259;1227;-73
2021/04/27 11:18:02;;;;;;;;;;;21.50;29.00;;;;;;460382;259;1082;-73
2021/04/27 11:20:01;;;;;;;;;;;21.50;28.90;;;;;;457864;259;1433;-73
2021/04/27 11:22:02;;;;;;;;;;;21.50;28.90;;;;;;460102;259;1138;-73
2021/04/27 11:24:07;;;;;;;;;;;21.50;28.90;;;;;;452524;262;1067;-73
2021/04/27 11:26:05;;;;;;;;;;;21.40;29.00;;;;;;458008;259;1357;-73
2021/04/27 11:28:06;;;;;;;;;;;21.50;28.90;;;;;;460250;259;1099;-75
2021/04/27 11:30:08;;;;;;;;;;;21.50;28.90;;;;;;452416;262;2166;-73
2021/04/27 11:32:09;;;;;;;;;;;21.50;28.90;;;;;;457825;259;1097;-73
2021/04/27 11:34:10;;;;;;;;;;;21.50;29.00;;;;;;460054;259;1050;-73
2021/04/27 11:36:12;;;;;;;;;;;21.50;29.00;;;;;;452094;262;1362;-73
2021/04/27 11:38:13;;;;;;;;;;;21.50;28.90;;;;;;457885;259;1267;-73
2021/04/27 11:40:14;;;;;;;;;;;21.50;28.90;;;;;;459888;259;1079;-73
2021/04/27 11:42:15;;;;;;;;;;;21.50;28.90;;;;;;452063;259;1276;-73
2021/04/27 11:44:17;;;;;;;;;;;21.50;29.00;;;;;;457929;259;1055;-73
2021/04/27 11:46:18;;;;;;;;;;;21.50;28.90;;;;;;460018;258;2224;-73
2021/04/27 11:48:19;;;;;;;;;;;21.60;28.90;;;;;;452327;262;1214;-73
2021/04/27 11:50:20;;;;;;;;;;;21.50;28.90;;;;;;457964;259;2150;-73
2021/04/27 11:52:22;;;;;;;;;;;21.50;28.90;;;;;;460208;259;1075;-73
2021/04/27 11:54:23;;;;;;;;;;;21.50;29.00;;;;;;457854;259;1224;-73
2021/04/27 11:56:24;;;;;;;;;;;21.50;29.00;;;;;;460238;259;1178;-73